Flight Track Log - Related Links

Times and Time Zones

All times are in EDT time to prevent confusion due to time zone crossing. See the ASQ4209 flight status page for this flight to view local times or setup timezone preferences in your user account.


Time Position Orientation Groundspeed Altitude Reporting Facility
EDT Latitude Longitude Course Direction KTS MPH feet Rate Location/Type
Sun 08:13:38 PM 40.6667 -74.1833 46° Northeast 158 182 1,000  Level New York TRACON
Sun 08:14:39 PM 40.6500 -74.2167 237° Southwest 200 230 3,200 2,083 Climbing New York TRACON
Sun 08:15:39 PM 40.7000 -74.1833 27° Northeast 245 282 5,200 1,900 Climbing New York TRACON
Sun 08:16:39 PM 40.7500 -74.1000 52° Northeast 287 330 7,000 2,200 Climbing New York TRACON
Sun 08:17:39 PM 40.7667 -74.0000 78° East 292 336 9,600 1,500 Climbing New York TRACON
Sun 08:18:39 PM 40.7833 -73.8833 79° East 332 382 10,000 147 Climbing New York TRACON
Sun 08:19:00 PM 41.1001 -73.5367 46° Northeast  Level FlightAware Approximate
Sun 08:20:22 PM 40.8658 -73.6969 60° Northeast 350 403 10,000  Level Boston Center
Sun 08:21:22 PM 40.9147 -73.5936 58° Northeast 344 396 11,800 1,950 Climbing Boston Center
Sun 08:22:22 PM 40.9556 -73.4817 64° Northeast 338 389 13,900 2,100 Climbing Boston Center
Sun 08:23:22 PM 40.9942 -73.3667 66° East 331 381 16,000 1,550 Climbing Boston Center
Sun 08:24:22 PM 41.0553 -73.2742 49° Northeast 326 375 17,000 500 Climbing Boston Center
Sun 08:25:22 PM 41.1244 -73.1867 44° Northeast 331 381 17,000 350 Level Boston Center
Sun 08:26:22 PM 41.2331 -73.1633 North 343 395 17,700 900 Climbing Boston Center
Sun 08:27:22 PM 41.3436 -73.1425 North 379 436 18,800 1,100 Climbing Boston Center
Sun 08:28:22 PM 41.4297 -73.0353 43° Northeast 386 444 19,900 1,050 Climbing Boston Center
Sun 08:29:22 PM 41.4886 -72.9000 60° Northeast 386 444 20,900 950 Climbing Boston Center
Sun 08:30:22 PM 41.5475 -72.7675 59° Northeast 408 470 21,800 950 Climbing Boston Center
Sun 08:31:22 PM 41.6061 -72.6317 60° Northeast 408 470 22,800 800 Climbing Boston Center
Sun 08:32:22 PM 41.6667 -72.4900 60° Northeast 419 482 23,400 850 Climbing Boston Center
Sun 08:33:22 PM 41.7292 -72.3539 58° Northeast 424 488 24,500 1,100 Climbing Boston Center
Sun 08:34:22 PM 41.7894 -72.2144 60° Northeast 424 488 25,600 1,100 Climbing Boston Center
Sun 08:35:22 PM 41.8497 -72.0806 59° Northeast 424 488 26,700 1,150 Climbing Boston Center
Sun 08:36:22 PM 41.9117 -71.9464 58° Northeast 424 488 27,900 1,100 Climbing Boston Center
Sun 08:37:22 PM 41.9839 -71.8172 53° Northeast 429 494 28,900 550 Climbing Boston Center
Sun 08:38:22 PM 42.0814 -71.7436 29° Northeast 422 486 29,000 200 Climbing Boston Center
Sun 08:39:22 PM 42.1997 -71.6469 31° Northeast 436 502 29,300 650 Climbing Boston Center
Sun 08:40:22 PM 42.2764 -71.5814 32° Northeast 456 525 30,300 1,250 Climbing Boston Center
Sun 08:41:22 PM 42.4192 -71.4725 29° Northeast 456 525 31,800 1,300 Climbing Boston Center
Sun 08:42:22 PM 42.5225 -71.3808 33° Northeast 449 517 32,900 950 Climbing Boston Center
Sun 08:43:22 PM 42.6303 -71.2944 31° Northeast 443 510 33,700 800 Climbing Boston Center
Sun 08:44:22 PM 42.7356 -71.2019 33° Northeast 448 516 34,500 650 Climbing Boston Center
Sun 08:45:22 PM 42.8025 -71.0619 57° Northeast 434 499 35,000 250 Climbing Boston Center
Sun 08:46:22 PM 42.8611 -70.8992 64° Northeast 457 526 35,000  Level Boston Center
Sun 08:47:22 PM 42.9169 -70.7278 66° East 469 540 35,000  Level Boston Center
Sun 08:48:22 PM 42.9725 -70.5586 66° East 479 551 35,000  Level Boston Center
Sun 08:49:22 PM 43.0322 -70.3864 65° Northeast 489 563 35,000  Level Boston Center
Sun 08:50:22 PM 43.0894 -70.2197 65° Northeast 484 557 35,000  Level Boston Center
Sun 08:51:22 PM 43.1364 -70.0728 66° East 479 551 35,000  Level Boston Center
Sun 08:52:22 PM 43.1892 -69.9083 66° East 472 543 35,000  Level Boston Center
Sun 08:53:22 PM 43.2458 -69.7378 65° Northeast 472 543 35,000  Level Boston Center
Sun 08:54:22 PM 43.3100 -69.5494 65° Northeast 477 549 35,000  Level Boston Center
Sun 08:55:22 PM 43.3544 -69.4131 66° East 477 549 35,000  Level Boston Center
Sun 08:56:22 PM 43.4100 -69.2361 67° East 471 542 35,000  Level Boston Center
Sun 08:57:22 PM 43.4636 -69.0728 66° East 466 536 35,000  Level Boston Center
Sun 08:58:22 PM 43.5153 -68.9125 66° East 466 536 35,000  Level Boston Center
Sun 08:59:22 PM 43.5683 -68.7489 66° East 466 536 35,000  Level Boston Center
Sun 09:00:22 PM 43.6172 -68.5908 67° East 456 525 35,000 -50 Level Boston Center
Sun 09:01:22 PM 43.6683 -68.4328 66° East 449 517 34,900  Descending Boston Center
Sun 09:02:08 PM 43.7000 -68.2833 74° East 460 529 35,000 57 Climbing Moncton Center
Sun 09:03:08 PM 43.7500 -68.1500 63° Northeast 460 529 35,000  Level Moncton Center
Sun 09:04:08 PM 43.8000 -67.9667 69° East 470 541 35,000  Level Moncton Center
Sun 09:05:08 PM 43.8500 -67.8000 67° East 470 541 35,000  Level Moncton Center
Sun 09:06:08 PM 43.9000 -67.6167 69° East 470 541 35,000  Level Moncton Center
Sun 09:07:08 PM 43.9500 -67.4667 65° Northeast 470 541 35,000  Level Moncton Center
Sun 09:08:08 PM 44.0000 -67.3000 67° East 460 529 35,000  Level Moncton Center
Sun 09:09:08 PM 44.0500 -67.1333 67° East 460 529 35,000  Level Moncton Center
Sun 09:10:08 PM 44.0833 -66.9500 76° East 460 529 35,000  Level Moncton Center
Sun 09:11:08 PM 44.1333 -66.8000 65° Northeast 460 529 35,000  Level Moncton Center
Sun 09:12:08 PM 44.1667 -66.6333 74° East 460 529 35,000  Level Moncton Center
Sun 09:13:08 PM 44.2167 -66.4500 69° East 460 529 35,000 -200 Level Moncton Center
Sun 09:14:08 PM 44.2500 -66.2833 74° East 460 529 34,600 -850 Descending Moncton Center
Sun 09:15:08 PM 44.2833 -66.1000 76° East 470 541 33,300 -1,400 Descending Moncton Center
Sun 09:16:08 PM 44.3500 -65.9333 61° Northeast 480 552 31,800 -1,950 Descending Moncton Center
Sun 09:17:08 PM 44.3833 -65.7500 76° East 490 564 29,400 -2,350 Descending Moncton Center
Sun 09:18:08 PM 44.4167 -65.5667 76° East 480 552 27,100 -2,400 Descending Moncton Center
Sun 09:19:08 PM 44.4667 -65.3833 69° East 470 541 24,600 -2,400 Descending Moncton Center
Sun 09:20:08 PM 44.5000 -65.2167 74° East 460 529 22,300 -2,400 Descending Moncton Center
Sun 09:21:08 PM 44.5333 -65.0500 74° East 450 518 19,800 -2,400 Descending Moncton Center
Sun 09:22:08 PM 44.5667 -64.8833 74° East 440 506 17,500 -2,400 Descending Moncton Center
Sun 09:23:08 PM 44.6000 -64.7500 71° East 410 472 15,000 -2,450 Descending Moncton Center
Sun 09:24:08 PM 44.6333 -64.6167 71° East 390 449 12,600 -2,450 Descending Moncton Center
Sun 09:25:08 PM 44.6667 -64.4500 74° East 370 426 10,100 -1,600 Descending Moncton Center
Sun 09:26:08 PM 44.7000 -64.3333 68° East 340 391 9,400 -850 Descending Moncton Center
Sun 09:27:08 PM 44.7333 -64.2333 65° Northeast 310 357 8,400 -1,300 Descending Moncton Center
Sun 09:28:08 PM 44.7667 -64.1333 65° Northeast 290 334 6,800 -1,550 Descending Moncton Center
Sun 09:29:08 PM 44.8000 -64.0167 68° East 280 322 5,300 -1,550 Descending Moncton Center
Sun 09:30:08 PM 44.8333 -63.9333 61° Northeast 280 322 3,700 -1,300 Descending Moncton Center
Sun 09:31:08 PM 44.8667 -63.8333 65° Northeast 270 311 2,700 -750 Descending Moncton Center
Sun 09:32:08 PM 44.9000 -63.7333 65° Northeast 270 311 2,200 -250 Descending Moncton Center
Sun 09:33:08 PM 44.9333 -63.6333 65° Northeast 280 322 2,200  Level Moncton Center
Sun 09:34:08 PM 44.9667 -63.5167 68° East 280 322 2,200  Level Moncton Center

Login

Don't have an account? Register now (free) for customized features, flight alerts, and more!